sensor_id;sensor_type;location;lat;lon;timestamp;P1;durP1;ratioP1;P2;durP2;ratioP2
12986;SDS011;58897;51.960;5.582;2023-05-07T00:01:12;7.27;;;5.77;;
12986;SDS011;58897;51.960;5.582;2023-05-07T00:03:38;7.10;;;6.00;;
12986;SDS011;58897;51.960;5.582;2023-05-07T00:06:05;8.10;;;5.90;;
12986;SDS011;58897;51.960;5.582;2023-05-07T00:08:32;8.83;;;6.37;;
12986;SDS011;58897;51.960;5.582;2023-05-07T00:10:59;6.63;;;5.87;;
12986;SDS011;58897;51.960;5.582;2023-05-07T00:13:25;10.03;;;6.37;;
12986;SDS011;58897;51.960;5.582;2023-05-07T00:15:52;6.73;;;5.60;;
12986;SDS011;58897;51.960;5.582;2023-05-07T00:18:19;5.87;;;5.23;;
12986;SDS011;58897;51.960;5.582;2023-05-07T00:20:48;7.83;;;6.00;;
12986;SDS011;58897;51.960;5.582;2023-05-07T00:23:15;7.27;;;5.90;;
12986;SDS011;58897;51.960;5.582;2023-05-07T00:25:41;7.40;;;6.23;;
12986;SDS011;58897;51.960;5.582;2023-05-07T00:28:08;6.87;;;5.90;;
12986;SDS011;58897;51.960;5.582;2023-05-07T00:30:34;6.87;;;5.70;;
12986;SDS011;58897;51.960;5.582;2023-05-07T00:33:01;8.53;;;6.30;;
12986;SDS011;58897;51.960;5.582;2023-05-07T00:35:28;7.03;;;6.17;;
12986;SDS011;58897;51.960;5.582;2023-05-07T00:37:55;8.43;;;5.73;;
12986;SDS011;58897;51.960;5.582;2023-05-07T00:40:22;8.57;;;6.00;;
12986;SDS011;58897;51.960;5.582;2023-05-07T00:42:48;8.33;;;5.80;;
12986;SDS011;58897;51.960;5.582;2023-05-07T00:45:16;6.00;;;5.40;;
12986;SDS011;58897;51.960;5.582;2023-05-07T00:47:43;6.90;;;5.27;;
12986;SDS011;58897;51.960;5.582;2023-05-07T00:50:10;7.47;;;6.27;;
12986;SDS011;58897;51.960;5.582;2023-05-07T00:52:39;7.27;;;6.10;;
12986;SDS011;58897;51.960;5.582;2023-05-07T00:55:06;8.80;;;6.27;;
12986;SDS011;58897;51.960;5.582;2023-05-07T00:57:36;6.63;;;5.93;;
12986;SDS011;58897;51.960;5.582;2023-05-07T01:00:04;7.00;;;6.23;;
12986;SDS011;58897;51.960;5.582;2023-05-07T01:02:31;7.87;;;6.03;;
12986;SDS011;58897;51.960;5.582;2023-05-07T01:04:57;9.43;;;6.63;;
12986;SDS011;58897;51.960;5.582;2023-05-07T01:07:25;7.43;;;6.40;;
12986;SDS011;58897;51.960;5.582;2023-05-07T01:09:51;7.77;;;6.23;;
12986;SDS011;58897;51.960;5.582;2023-05-07T01:12:18;10.47;;;6.77;;
12986;SDS011;58897;51.960;5.582;2023-05-07T01:14:46;8.10;;;7.07;;
12986;SDS011;58897;51.960;5.582;2023-05-07T01:17:12;8.53;;;6.83;;
12986;SDS011;58897;51.960;5.582;2023-05-07T01:19:39;9.10;;;7.00;;
12986;SDS011;58897;51.960;5.582;2023-05-07T01:22:07;13.27;;;7.13;;
12986;SDS011;58897;51.960;5.582;2023-05-07T01:24:35;9.20;;;7.17;;
12986;SDS011;58897;51.960;5.582;2023-05-07T01:27:03;9.60;;;7.23;;
12986;SDS011;58897;51.960;5.582;2023-05-07T01:29:30;8.33;;;7.30;;
12986;SDS011;58897;51.960;5.582;2023-05-07T01:31:57;8.50;;;6.93;;
12986;SDS011;58897;51.960;5.582;2023-05-07T01:34:27;7.93;;;7.10;;
12986;SDS011;58897;51.960;5.582;2023-05-07T01:36:56;8.27;;;6.77;;
12986;SDS011;58897;51.960;5.582;2023-05-07T01:39:25;9.17;;;7.17;;
12986;SDS011;58897;51.960;5.582;2023-05-07T01:41:54;8.67;;;7.17;;
12986;SDS011;58897;51.960;5.582;2023-05-07T01:44:22;9.20;;;8.00;;
12986;SDS011;58897;51.960;5.582;2023-05-07T01:46:49;8.63;;;7.73;;
12986;SDS011;58897;51.960;5.582;2023-05-07T01:49:16;9.50;;;8.27;;
12986;SDS011;58897;51.960;5.582;2023-05-07T01:51:42;10.40;;;8.47;;
12986;SDS011;58897;51.960;5.582;2023-05-07T01:54:10;10.27;;;8.30;;
12986;SDS011;58897;51.960;5.582;2023-05-07T01:56:36;10.87;;;8.60;;
12986;SDS011;58897;51.960;5.582;2023-05-07T01:59:02;9.40;;;8.40;;
12986;SDS011;58897;51.960;5.582;2023-05-07T02:01:29;10.27;;;8.40;;
12986;SDS011;58897;51.960;5.582;2023-05-07T02:03:56;12.60;;;9.10;;
12986;SDS011;58897;51.960;5.582;2023-05-07T02:06:22;12.10;;;9.07;;
12986;SDS011;58897;51.960;5.582;2023-05-07T02:08:49;10.93;;;9.60;;
12986;SDS011;58897;51.960;5.582;2023-05-07T02:11:15;11.10;;;9.30;;
12986;SDS011;58897;51.960;5.582;2023-05-07T02:13:42;11.00;;;9.80;;
12986;SDS011;58897;51.960;5.582;2023-05-07T02:16:08;13.83;;;10.33;;
12986;SDS011;58897;51.960;5.582;2023-05-07T02:18:35;14.30;;;10.50;;
12986;SDS011;58897;51.960;5.582;2023-05-07T02:21:02;9.73;;;7.90;;
12986;SDS011;58897;51.960;5.582;2023-05-07T02:23:28;11.83;;;9.23;;
12986;SDS011;58897;51.960;5.582;2023-05-07T02:25:55;10.87;;;8.37;;
12986;SDS011;58897;51.960;5.582;2023-05-07T02:28:21;11.07;;;8.50;;
12986;SDS011;58897;51.960;5.582;2023-05-07T02:30:48;10.53;;;8.47;;
12986;SDS011;58897;51.960;5.582;2023-05-07T02:33:15;10.27;;;8.73;;
12986;SDS011;58897;51.960;5.582;2023-05-07T02:35:41;10.60;;;8.03;;
12986;SDS011;58897;51.960;5.582;2023-05-07T02:38:08;11.93;;;9.37;;
12986;SDS011;58897;51.960;5.582;2023-05-07T02:40:36;9.60;;;8.20;;
12986;SDS011;58897;51.960;5.582;2023-05-07T02:43:06;10.27;;;8.27;;
12986;SDS011;58897;51.960;5.582;2023-05-07T02:45:32;11.90;;;8.53;;
12986;SDS011;58897;51.960;5.582;2023-05-07T02:48:00;9.87;;;7.83;;
12986;SDS011;58897;51.960;5.582;2023-05-07T02:50:26;12.30;;;9.00;;
12986;SDS011;58897;51.960;5.582;2023-05-07T02:52:53;9.30;;;8.33;;
12986;SDS011;58897;51.960;5.582;2023-05-07T02:55:20;10.53;;;9.43;;
12986;SDS011;58897;51.960;5.582;2023-05-07T02:57:47;10.40;;;8.77;;
12986;SDS011;58897;51.960;5.582;2023-05-07T03:00:15;11.47;;;9.17;;
12986;SDS011;58897;51.960;5.582;2023-05-07T03:02:43;11.30;;;9.43;;
12986;SDS011;58897;51.960;5.582;2023-05-07T03:05:10;11.57;;;9.53;;
12986;SDS011;58897;51.960;5.582;2023-05-07T03:07:38;11.40;;;8.70;;
12986;SDS011;58897;51.960;5.582;2023-05-07T03:10:05;12.60;;;9.77;;
12986;SDS011;58897;51.960;5.582;2023-05-07T03:12:32;10.60;;;8.73;;
12986;SDS011;58897;51.960;5.582;2023-05-07T03:14:58;12.03;;;9.00;;
12986;SDS011;58897;51.960;5.582;2023-05-07T03:17:25;11.60;;;9.37;;
12986;SDS011;58897;51.960;5.582;2023-05-07T03:19:51;12.17;;;9.27;;
12986;SDS011;58897;51.960;5.582;2023-05-07T03:22:18;13.03;;;10.20;;
12986;SDS011;58897;51.960;5.582;2023-05-07T03:24:45;11.03;;;9.77;;
12986;SDS011;58897;51.960;5.582;2023-05-07T03:27:11;11.30;;;9.27;;
12986;SDS011;58897;51.960;5.582;2023-05-07T03:29:37;12.77;;;9.67;;
12986;SDS011;58897;51.960;5.582;2023-05-07T03:32:04;12.80;;;10.03;;
12986;SDS011;58897;51.960;5.582;2023-05-07T03:34:31;12.33;;;9.40;;
12986;SDS011;58897;51.960;5.582;2023-05-07T03:36:58;11.17;;;9.03;;
12986;SDS011;58897;51.960;5.582;2023-05-07T03:39:25;11.00;;;9.00;;
12986;SDS011;58897;51.960;5.582;2023-05-07T03:41:51;13.77;;;10.40;;
12986;SDS011;58897;51.960;5.582;2023-05-07T03:44:17;12.50;;;9.53;;
12986;SDS011;58897;51.960;5.582;2023-05-07T03:46:44;11.83;;;10.23;;
12986;SDS011;58897;51.960;5.582;2023-05-07T03:49:11;11.23;;;9.97;;
12986;SDS011;58897;51.960;5.582;2023-05-07T03:51:37;13.37;;;10.30;;
12986;SDS011;58897;51.960;5.582;2023-05-07T03:54:04;12.73;;;10.83;;
12986;SDS011;58897;51.960;5.582;2023-05-07T03:56:30;12.63;;;10.33;;
12986;SDS011;58897;51.960;5.582;2023-05-07T03:58:57;15.10;;;10.50;;
12986;SDS011;58897;51.960;5.582;2023-05-07T04:01:24;15.77;;;10.23;;
12986;SDS011;58897;51.960;5.582;2023-05-07T04:03:50;13.63;;;10.93;;
12986;SDS011;58897;51.960;5.582;2023-05-07T04:06:17;16.03;;;11.00;;
12986;SDS011;58897;51.960;5.582;2023-05-07T04:08:43;13.53;;;10.57;;
12986;SDS011;58897;51.960;5.582;2023-05-07T04:11:10;14.60;;;10.03;;
12986;SDS011;58897;51.960;5.582;2023-05-07T04:13:36;13.70;;;10.50;;
12986;SDS011;58897;51.960;5.582;2023-05-07T04:16:03;12.70;;;10.50;;
12986;SDS011;58897;51.960;5.582;2023-05-07T04:18:31;13.03;;;10.33;;
12986;SDS011;58897;51.960;5.582;2023-05-07T04:20:57;12.83;;;10.47;;
12986;SDS011;58897;51.960;5.582;2023-05-07T04:23:24;11.83;;;9.83;;
12986;SDS011;58897;51.960;5.582;2023-05-07T04:25:50;12.00;;;10.17;;
12986;SDS011;58897;51.960;5.582;2023-05-07T04:28:17;14.30;;;10.77;;
12986;SDS011;58897;51.960;5.582;2023-05-07T04:30:44;17.67;;;10.87;;
12986;SDS011;58897;51.960;5.582;2023-05-07T04:33:10;11.23;;;9.90;;
12986;SDS011;58897;51.960;5.582;2023-05-07T04:35:37;11.83;;;10.03;;
12986;SDS011;58897;51.960;5.582;2023-05-07T04:38:04;12.17;;;10.23;;
12986;SDS011;58897;51.960;5.582;2023-05-07T04:40:30;14.53;;;10.83;;
12986;SDS011;58897;51.960;5.582;2023-05-07T04:42:57;14.53;;;11.10;;
12986;SDS011;58897;51.960;5.582;2023-05-07T04:45:23;12.60;;;10.47;;
12986;SDS011;58897;51.960;5.582;2023-05-07T04:47:50;13.77;;;11.60;;
12986;SDS011;58897;51.960;5.582;2023-05-07T04:50:16;13.93;;;9.97;;
12986;SDS011;58897;51.960;5.582;2023-05-07T04:52:45;15.03;;;11.23;;
12986;SDS011;58897;51.960;5.582;2023-05-07T04:55:12;15.53;;;11.17;;
12986;SDS011;58897;51.960;5.582;2023-05-07T04:57:38;16.40;;;11.27;;
12986;SDS011;58897;51.960;5.582;2023-05-07T05:00:07;15.43;;;10.80;;
12986;SDS011;58897;51.960;5.582;2023-05-07T05:02:35;13.03;;;10.40;;
12986;SDS011;58897;51.960;5.582;2023-05-07T05:05:02;14.47;;;10.70;;
12986;SDS011;58897;51.960;5.582;2023-05-07T05:07:28;14.30;;;11.57;;
12986;SDS011;58897;51.960;5.582;2023-05-07T05:09:55;12.70;;;10.97;;
12986;SDS011;58897;51.960;5.582;2023-05-07T05:12:23;12.70;;;10.60;;
12986;SDS011;58897;51.960;5.582;2023-05-07T05:14:50;12.97;;;10.70;;
12986;SDS011;58897;51.960;5.582;2023-05-07T05:17:16;15.63;;;11.17;;
12986;SDS011;58897;51.960;5.582;2023-05-07T05:19:43;14.13;;;10.23;;
12986;SDS011;58897;51.960;5.582;2023-05-07T05:22:09;12.80;;;10.40;;
12986;SDS011;58897;51.960;5.582;2023-05-07T05:24:35;14.33;;;10.97;;
12986;SDS011;58897;51.960;5.582;2023-05-07T05:27:02;14.47;;;11.20;;
12986;SDS011;58897;51.960;5.582;2023-05-07T05:29:29;12.77;;;10.87;;
12986;SDS011;58897;51.960;5.582;2023-05-07T05:31:57;14.37;;;11.27;;
12986;SDS011;58897;51.960;5.582;2023-05-07T05:34:24;16.83;;;10.57;;
12986;SDS011;58897;51.960;5.582;2023-05-07T05:36:50;12.70;;;10.43;;
12986;SDS011;58897;51.960;5.582;2023-05-07T05:39:17;12.77;;;10.10;;
12986;SDS011;58897;51.960;5.582;2023-05-07T05:41:43;14.57;;;10.63;;
12986;SDS011;58897;51.960;5.582;2023-05-07T05:44:09;17.50;;;11.37;;
12986;SDS011;58897;51.960;5.582;2023-05-07T05:46:36;16.63;;;12.30;;
12986;SDS011;58897;51.960;5.582;2023-05-07T05:49:03;16.67;;;12.30;;
12986;SDS011;58897;51.960;5.582;2023-05-07T05:51:29;16.53;;;11.77;;
12986;SDS011;58897;51.960;5.582;2023-05-07T05:53:56;14.97;;;11.27;;
12986;SDS011;58897;51.960;5.582;2023-05-07T05:56:23;14.77;;;11.73;;
12986;SDS011;58897;51.960;5.582;2023-05-07T05:58:49;13.93;;;11.20;;
12986;SDS011;58897;51.960;5.582;2023-05-07T06:01:16;14.83;;;11.13;;
12986;SDS011;58897;51.960;5.582;2023-05-07T06:03:43;17.30;;;12.20;;
12986;SDS011;58897;51.960;5.582;2023-05-07T06:06:10;14.60;;;11.70;;
12986;SDS011;58897;51.960;5.582;2023-05-07T06:08:37;17.07;;;11.73;;
12986;SDS011;58897;51.960;5.582;2023-05-07T06:11:03;15.43;;;12.63;;
12986;SDS011;58897;51.960;5.582;2023-05-07T06:13:29;14.23;;;11.40;;
12986;SDS011;58897;51.960;5.582;2023-05-07T06:15:56;14.70;;;11.27;;
12986;SDS011;58897;51.960;5.582;2023-05-07T06:18:22;15.03;;;11.43;;
12986;SDS011;58897;51.960;5.582;2023-05-07T06:20:49;15.37;;;11.93;;
12986;SDS011;58897;51.960;5.582;2023-05-07T06:23:15;15.20;;;12.17;;
12986;SDS011;58897;51.960;5.582;2023-05-07T06:25:47;14.60;;;11.00;;
12986;SDS011;58897;51.960;5.582;2023-05-07T06:28:15;17.00;;;11.67;;
12986;SDS011;58897;51.960;5.582;2023-05-07T06:30:42;13.57;;;11.57;;
12986;SDS011;58897;51.960;5.582;2023-05-07T06:33:09;14.60;;;11.20;;
12986;SDS011;58897;51.960;5.582;2023-05-07T06:35:35;14.50;;;11.63;;
12986;SDS011;58897;51.960;5.582;2023-05-07T06:38:02;15.70;;;11.77;;
12986;SDS011;58897;51.960;5.582;2023-05-07T06:40:28;12.80;;;11.20;;
12986;SDS011;58897;51.960;5.582;2023-05-07T06:42:54;12.70;;;10.00;;
12986;SDS011;58897;51.960;5.582;2023-05-07T06:45:21;13.57;;;10.77;;
12986;SDS011;58897;51.960;5.582;2023-05-07T06:47:48;11.57;;;10.33;;
12986;SDS011;58897;51.960;5.582;2023-05-07T06:50:14;13.60;;;10.10;;
12986;SDS011;58897;51.960;5.582;2023-05-07T06:52:42;16.70;;;11.70;;
12986;SDS011;58897;51.960;5.582;2023-05-07T06:55:09;14.63;;;10.63;;
12986;SDS011;58897;51.960;5.582;2023-05-07T06:57:37;14.80;;;10.47;;
12986;SDS011;58897;51.960;5.582;2023-05-07T07:00:04;13.90;;;10.93;;
12986;SDS011;58897;51.960;5.582;2023-05-07T07:02:36;15.47;;;10.90;;
12986;SDS011;58897;51.960;5.582;2023-05-07T07:05:02;13.07;;;10.67;;
12986;SDS011;58897;51.960;5.582;2023-05-07T07:07:29;13.10;;;10.97;;
12986;SDS011;58897;51.960;5.582;2023-05-07T07:09:56;13.63;;;10.70;;
12986;SDS011;58897;51.960;5.582;2023-05-07T07:12:24;13.70;;;11.17;;
12986;SDS011;58897;51.960;5.582;2023-05-07T07:14:52;15.43;;;10.97;;
12986;SDS011;58897;51.960;5.582;2023-05-07T07:17:20;15.27;;;11.00;;
12986;SDS011;58897;51.960;5.582;2023-05-07T07:19:46;11.70;;;10.50;;
12986;SDS011;58897;51.960;5.582;2023-05-07T07:22:13;13.33;;;10.63;;
12986;SDS011;58897;51.960;5.582;2023-05-07T07:24:39;14.20;;;10.80;;
12986;SDS011;58897;51.960;5.582;2023-05-07T07:27:06;12.47;;;10.60;;
12986;SDS011;58897;51.960;5.582;2023-05-07T07:29:32;13.27;;;11.27;;
12986;SDS011;58897;51.960;5.582;2023-05-07T07:31:59;12.53;;;10.37;;
12986;SDS011;58897;51.960;5.582;2023-05-07T07:34:26;14.00;;;11.23;;
12986;SDS011;58897;51.960;5.582;2023-05-07T07:36:52;12.83;;;10.93;;
12986;SDS011;58897;51.960;5.582;2023-05-07T07:39:19;14.40;;;11.50;;
12986;SDS011;58897;51.960;5.582;2023-05-07T07:41:45;13.87;;;11.50;;
12986;SDS011;58897;51.960;5.582;2023-05-07T07:44:11;12.60;;;10.63;;
12986;SDS011;58897;51.960;5.582;2023-05-07T07:46:41;13.13;;;11.73;;
12986;SDS011;58897;51.960;5.582;2023-05-07T07:49:08;12.73;;;10.83;;
12986;SDS011;58897;51.960;5.582;2023-05-07T07:51:34;12.17;;;10.87;;
12986;SDS011;58897;51.960;5.582;2023-05-07T07:54:01;14.27;;;11.60;;
12986;SDS011;58897;51.960;5.582;2023-05-07T07:56:29;14.23;;;11.77;;
12986;SDS011;58897;51.960;5.582;2023-05-07T07:58:55;13.30;;;11.67;;
12986;SDS011;58897;51.960;5.582;2023-05-07T08:01:21;12.53;;;11.10;;
12986;SDS011;58897;51.960;5.582;2023-05-07T08:03:48;14.50;;;11.77;;
12986;SDS011;58897;51.960;5.582;2023-05-07T08:06:15;13.00;;;11.13;;
12986;SDS011;58897;51.960;5.582;2023-05-07T08:08:41;12.97;;;11.50;;
12986;SDS011;58897;51.960;5.582;2023-05-07T08:11:08;12.13;;;10.83;;
12986;SDS011;58897;51.960;5.582;2023-05-07T08:13:34;13.30;;;11.10;;
12986;SDS011;58897;51.960;5.582;2023-05-07T08:16:01;13.60;;;10.97;;
12986;SDS011;58897;51.960;5.582;2023-05-07T08:18:28;15.00;;;12.00;;
12986;SDS011;58897;51.960;5.582;2023-05-07T08:20:55;14.13;;;12.07;;
12986;SDS011;58897;51.960;5.582;2023-05-07T08:23:21;14.43;;;11.87;;
12986;SDS011;58897;51.960;5.582;2023-05-07T08:25:49;13.57;;;11.90;;
12986;SDS011;58897;51.960;5.582;2023-05-07T08:28:16;14.90;;;11.70;;
12986;SDS011;58897;51.960;5.582;2023-05-07T08:30:42;16.20;;;12.87;;
12986;SDS011;58897;51.960;5.582;2023-05-07T08:33:09;13.83;;;11.97;;
12986;SDS011;58897;51.960;5.582;2023-05-07T08:35:36;16.83;;;13.33;;
12986;SDS011;58897;51.960;5.582;2023-05-07T08:38:02;16.33;;;13.17;;
12986;SDS011;58897;51.960;5.582;2023-05-07T08:40:29;16.80;;;13.93;;
12986;SDS011;58897;51.960;5.582;2023-05-07T08:43:00;15.57;;;13.63;;
12986;SDS011;58897;51.960;5.582;2023-05-07T08:45:28;17.53;;;14.83;;
12986;SDS011;58897;51.960;5.582;2023-05-07T08:47:58;18.17;;;15.03;;
12986;SDS011;58897;51.960;5.582;2023-05-07T08:50:25;16.57;;;14.30;;
12986;SDS011;58897;51.960;5.582;2023-05-07T08:52:52;16.33;;;14.40;;
12986;SDS011;58897;51.960;5.582;2023-05-07T08:55:19;18.17;;;15.47;;
12986;SDS011;58897;51.960;5.582;2023-05-07T08:57:47;16.43;;;13.80;;
12986;SDS011;58897;51.960;5.582;2023-05-07T09:00:14;16.10;;;13.47;;
12986;SDS011;58897;51.960;5.582;2023-05-07T09:02:41;15.93;;;13.50;;
12986;SDS011;58897;51.960;5.582;2023-05-07T09:05:08;16.83;;;13.57;;
12986;SDS011;58897;51.960;5.582;2023-05-07T09:07:35;14.97;;;12.80;;
12986;SDS011;58897;51.960;5.582;2023-05-07T09:10:02;13.63;;;10.87;;
12986;SDS011;58897;51.960;5.582;2023-05-07T09:12:30;13.43;;;9.97;;
12986;SDS011;58897;51.960;5.582;2023-05-07T09:14:57;13.27;;;10.83;;
12986;SDS011;58897;51.960;5.582;2023-05-07T09:17:25;13.33;;;9.70;;
12986;SDS011;58897;51.960;5.582;2023-05-07T09:19:52;11.23;;;9.83;;
12986;SDS011;58897;51.960;5.582;2023-05-07T09:22:19;13.03;;;10.83;;
12986;SDS011;58897;51.960;5.582;2023-05-07T09:24:50;13.33;;;10.27;;
12986;SDS011;58897;51.960;5.582;2023-05-07T09:27:18;11.93;;;9.90;;
12986;SDS011;58897;51.960;5.582;2023-05-07T09:29:44;13.60;;;9.43;;
12986;SDS011;58897;51.960;5.582;2023-05-07T09:32:11;9.70;;;8.63;;
12986;SDS011;58897;51.960;5.582;2023-05-07T09:34:37;11.27;;;8.73;;
12986;SDS011;58897;51.960;5.582;2023-05-07T09:37:04;11.30;;;7.53;;
12986;SDS011;58897;51.960;5.582;2023-05-07T09:42:08;9.67;;;7.80;;
12986;SDS011;58897;51.960;5.582;2023-05-07T09:44:35;12.57;;;8.50;;
12986;SDS011;58897;51.960;5.582;2023-05-07T09:47:03;9.57;;;7.30;;
12986;SDS011;58897;51.960;5.582;2023-05-07T09:49:33;12.43;;;7.87;;
12986;SDS011;58897;51.960;5.582;2023-05-07T09:52:02;9.87;;;6.93;;
12986;SDS011;58897;51.960;5.582;2023-05-07T09:54:35;11.90;;;7.20;;
12986;SDS011;58897;51.960;5.582;2023-05-07T09:57:04;8.60;;;7.30;;
12986;SDS011;58897;51.960;5.582;2023-05-07T09:59:32;10.17;;;7.40;;
12986;SDS011;58897;51.960;5.582;2023-05-07T10:01:59;8.67;;;7.50;;
12986;SDS011;58897;51.960;5.582;2023-05-07T10:04:30;10.17;;;6.93;;
12986;SDS011;58897;51.960;5.582;2023-05-07T10:06:58;9.63;;;7.10;;
12986;SDS011;58897;51.960;5.582;2023-05-07T10:09:25;9.63;;;7.10;;
12986;SDS011;58897;51.960;5.582;2023-05-07T10:11:52;9.47;;;7.17;;
12986;SDS011;58897;51.960;5.582;2023-05-07T10:14:20;8.23;;;7.30;;
12986;SDS011;58897;51.960;5.582;2023-05-07T10:16:47;10.20;;;8.17;;
12986;SDS011;58897;51.960;5.582;2023-05-07T10:19:14;10.83;;;9.07;;
12986;SDS011;58897;51.960;5.582;2023-05-07T10:21:44;11.50;;;8.87;;
12986;SDS011;58897;51.960;5.582;2023-05-07T10:24:29;10.57;;;9.20;;
12986;SDS011;58897;51.960;5.582;2023-05-07T10:27:07;12.43;;;9.17;;
12986;SDS011;58897;51.960;5.582;2023-05-07T10:29:39;9.87;;;8.87;;
12986;SDS011;58897;51.960;5.582;2023-05-07T10:34:48;11.83;;;10.00;;
12986;SDS011;58897;51.960;5.582;2023-05-07T10:37:17;12.30;;;9.33;;
12986;SDS011;58897;51.960;5.582;2023-05-07T10:39:44;11.40;;;8.87;;
12986;SDS011;58897;51.960;5.582;2023-05-07T10:42:11;11.43;;;9.70;;
12986;SDS011;58897;51.960;5.582;2023-05-07T10:44:39;14.20;;;10.10;;
12986;SDS011;58897;51.960;5.582;2023-05-07T10:47:06;12.43;;;9.63;;
12986;SDS011;58897;51.960;5.582;2023-05-07T10:49:36;11.67;;;9.50;;
12986;SDS011;58897;51.960;5.582;2023-05-07T10:52:18;11.03;;;8.57;;
12986;SDS011;58897;51.960;5.582;2023-05-07T10:54:46;12.00;;;10.07;;
12986;SDS011;58897;51.960;5.582;2023-05-07T10:59:57;13.83;;;10.50;;
12986;SDS011;58897;51.960;5.582;2023-05-07T11:02:46;12.20;;;10.30;;
12986;SDS011;58897;51.960;5.582;2023-05-07T11:05:30;10.43;;;9.30;;
12986;SDS011;58897;51.960;5.582;2023-05-07T11:08:03;11.13;;;9.63;;
12986;SDS011;58897;51.960;5.582;2023-05-07T11:16:22;12.17;;;9.47;;
12986;SDS011;58897;51.960;5.582;2023-05-07T11:18:51;11.90;;;9.03;;
12986;SDS011;58897;51.960;5.582;2023-05-07T11:24:00;11.93;;;10.63;;
12986;SDS011;58897;51.960;5.582;2023-05-07T11:26:29;13.13;;;9.93;;
12986;SDS011;58897;51.960;5.582;2023-05-07T11:28:57;12.60;;;9.90;;
12986;SDS011;58897;51.960;5.582;2023-05-07T11:31:26;11.80;;;9.23;;
12986;SDS011;58897;51.960;5.582;2023-05-07T11:33:55;13.13;;;9.47;;
12986;SDS011;58897;51.960;5.582;2023-05-07T11:36:22;10.97;;;9.43;;
12986;SDS011;58897;51.960;5.582;2023-05-07T11:38:49;11.73;;;9.90;;
12986;SDS011;58897;51.960;5.582;2023-05-07T11:41:16;11.27;;;9.80;;
12986;SDS011;58897;51.960;5.582;2023-05-07T11:43:57;12.67;;;9.73;;
12986;SDS011;58897;51.960;5.582;2023-05-07T11:46:26;10.40;;;8.90;;
12986;SDS011;58897;51.960;5.582;2023-05-07T11:48:53;10.67;;;9.00;;
12986;SDS011;58897;51.960;5.582;2023-05-07T11:51:21;11.70;;;9.40;;
12986;SDS011;58897;51.960;5.582;2023-05-07T11:53:49;10.83;;;9.13;;
12986;SDS011;58897;51.960;5.582;2023-05-07T11:56:16;10.00;;;8.40;;
12986;SDS011;58897;51.960;5.582;2023-05-07T11:58:45;10.37;;;9.10;;
12986;SDS011;58897;51.960;5.582;2023-05-07T12:01:13;11.00;;;8.43;;
12986;SDS011;58897;51.960;5.582;2023-05-07T12:03:40;9.23;;;8.27;;
12986;SDS011;58897;51.960;5.582;2023-05-07T12:06:14;10.47;;;7.80;;
12986;SDS011;58897;51.960;5.582;2023-05-07T12:08:43;10.27;;;7.50;;
12986;SDS011;58897;51.960;5.582;2023-05-07T12:11:14;7.77;;;6.80;;
12986;SDS011;58897;51.960;5.582;2023-05-07T12:13:44;8.47;;;5.90;;
12986;SDS011;58897;51.960;5.582;2023-05-07T12:16:11;8.90;;;6.07;;
12986;SDS011;58897;51.960;5.582;2023-05-07T12:18:37;7.63;;;6.30;;
12986;SDS011;58897;51.960;5.582;2023-05-07T12:21:05;7.43;;;6.40;;
12986;SDS011;58897;51.960;5.582;2023-05-07T12:23:33;6.73;;;5.73;;
12986;SDS011;58897;51.960;5.582;2023-05-07T12:26:02;6.50;;;5.20;;
12986;SDS011;58897;51.960;5.582;2023-05-07T12:28:36;6.83;;;5.17;;
12986;SDS011;58897;51.960;5.582;2023-05-07T12:31:04;6.93;;;6.00;;
12986;SDS011;58897;51.960;5.582;2023-05-07T12:33:32;7.77;;;5.70;;
12986;SDS011;58897;51.960;5.582;2023-05-07T12:36:02;6.80;;;5.33;;
12986;SDS011;58897;51.960;5.582;2023-05-07T12:38:34;6.60;;;5.93;;
12986;SDS011;58897;51.960;5.582;2023-05-07T12:41:01;7.03;;;6.20;;
12986;SDS011;58897;51.960;5.582;2023-05-07T12:43:28;9.60;;;6.83;;
12986;SDS011;58897;51.960;5.582;2023-05-07T12:45:57;7.97;;;6.90;;
12986;SDS011;58897;51.960;5.582;2023-05-07T12:48:25;8.67;;;6.30;;
12986;SDS011;58897;51.960;5.582;2023-05-07T12:51:01;8.90;;;7.87;;
12986;SDS011;58897;51.960;5.582;2023-05-07T12:53:30;8.23;;;6.57;;
12986;SDS011;58897;51.960;5.582;2023-05-07T12:55:58;7.07;;;6.33;;
12986;SDS011;58897;51.960;5.582;2023-05-07T12:58:29;9.07;;;6.70;;
12986;SDS011;58897;51.960;5.582;2023-05-07T13:00:59;9.33;;;8.37;;
12986;SDS011;58897;51.960;5.582;2023-05-07T13:05:58;8.10;;;7.30;;
12986;SDS011;58897;51.960;5.582;2023-05-07T13:08:34;8.70;;;7.90;;
12986;SDS011;58897;51.960;5.582;2023-05-07T13:11:07;8.93;;;7.97;;
12986;SDS011;58897;51.960;5.582;2023-05-07T13:13:35;8.80;;;7.90;;
12986;SDS011;58897;51.960;5.582;2023-05-07T13:16:02;9.80;;;8.50;;
12986;SDS011;58897;51.960;5.582;2023-05-07T13:18:31;9.83;;;8.53;;
12986;SDS011;58897;51.960;5.582;2023-05-07T13:20:58;10.60;;;8.70;;
12986;SDS011;58897;51.960;5.582;2023-05-07T13:23:26;8.87;;;8.07;;
12986;SDS011;58897;51.960;5.582;2023-05-07T13:25:53;7.20;;;6.50;;
12986;SDS011;58897;51.960;5.582;2023-05-07T13:28:20;7.13;;;6.33;;
12986;SDS011;58897;51.960;5.582;2023-05-07T13:30:47;6.97;;;6.10;;
12986;SDS011;58897;51.960;5.582;2023-05-07T13:33:14;8.53;;;6.33;;
12986;SDS011;58897;51.960;5.582;2023-05-07T13:35:42;6.33;;;5.70;;
12986;SDS011;58897;51.960;5.582;2023-05-07T13:38:08;7.87;;;6.20;;
12986;SDS011;58897;51.960;5.582;2023-05-07T13:40:35;7.57;;;5.77;;
12986;SDS011;58897;51.960;5.582;2023-05-07T13:43:01;7.23;;;5.90;;
12986;SDS011;58897;51.960;5.582;2023-05-07T13:45:28;7.90;;;6.57;;
12986;SDS011;58897;51.960;5.582;2023-05-07T13:47:56;7.27;;;6.03;;
12986;SDS011;58897;51.960;5.582;2023-05-07T13:50:23;5.97;;;5.10;;
12986;SDS011;58897;51.960;5.582;2023-05-07T13:52:50;6.00;;;5.40;;
12986;SDS011;58897;51.960;5.582;2023-05-07T13:55:17;6.50;;;5.20;;
12986;SDS011;58897;51.960;5.582;2023-05-07T13:57:44;5.30;;;4.80;;
12986;SDS011;58897;51.960;5.582;2023-05-07T14:00:12;6.67;;;5.87;;
12986;SDS011;58897;51.960;5.582;2023-05-07T14:02:40;8.93;;;5.90;;
12986;SDS011;58897;51.960;5.582;2023-05-07T14:05:07;6.97;;;6.17;;
12986;SDS011;58897;51.960;5.582;2023-05-07T14:07:35;6.93;;;5.20;;
12986;SDS011;58897;51.960;5.582;2023-05-07T14:10:02;6.50;;;5.27;;
12986;SDS011;58897;51.960;5.582;2023-05-07T14:12:29;6.23;;;5.43;;
12986;SDS011;58897;51.960;5.582;2023-05-07T14:14:55;7.53;;;5.97;;
12986;SDS011;58897;51.960;5.582;2023-05-07T14:17:22;7.10;;;6.40;;
12986;SDS011;58897;51.960;5.582;2023-05-07T14:19:51;6.77;;;5.63;;
12986;SDS011;58897;51.960;5.582;2023-05-07T14:22:20;9.17;;;6.63;;
12986;SDS011;58897;51.960;5.582;2023-05-07T14:24:49;8.17;;;6.70;;
12986;SDS011;58897;51.960;5.582;2023-05-07T14:27:31;7.67;;;6.67;;
12986;SDS011;58897;51.960;5.582;2023-05-07T14:29:58;8.13;;;6.70;;
12986;SDS011;58897;51.960;5.582;2023-05-07T14:32:24;11.20;;;7.67;;
12986;SDS011;58897;51.960;5.582;2023-05-07T14:34:51;9.60;;;8.23;;
12986;SDS011;58897;51.960;5.582;2023-05-07T14:37:17;9.70;;;8.57;;
12986;SDS011;58897;51.960;5.582;2023-05-07T14:39:46;10.30;;;8.40;;
12986;SDS011;58897;51.960;5.582;2023-05-07T14:42:15;8.13;;;7.33;;
12986;SDS011;58897;51.960;5.582;2023-05-07T14:44:42;10.17;;;7.77;;
12986;SDS011;58897;51.960;5.582;2023-05-07T14:47:09;10.00;;;7.67;;
12986;SDS011;58897;51.960;5.582;2023-05-07T14:49:35;8.47;;;7.57;;
12986;SDS011;58897;51.960;5.582;2023-05-07T14:52:02;9.10;;;8.00;;
12986;SDS011;58897;51.960;5.582;2023-05-07T14:54:30;7.47;;;6.50;;